Waldo, KS (67673)

9:05 AM CDT on March 29, 2017 (GMT -0500)
Waldo | | Change Station

Elev 1708 ft 39.12 °N, 98.80 °W | Updated 3 minutes ago

Rain
Rain
46.3 °F
Feels Like 41 °F
N
11.0
Wind Variable Wind from NE
Gusts 23.0 mph

Today
High -- | Low -- °F
--% Chance of Precip.
Yesterday
High -- | Low -- °F
Precip. -- in
Pressure 29.81 in
Visibility 2.0 miles
Clouds Overcast 500 ft
Windchill 41 °F
Dew Point 45 °F
Humidity 95%
Rainfall 0.09 in
Snow Depth Not available.
7:23 AM 7:56 PM
Waxing Crescent, 3% visible
METAR KRSL 291353Z AUTO 02020G26KT 2SM -RA BR OVC005 08/07 A2980 RMK AO2 PK WND 02029/1321 SLP094 P0005 T00780067
Pressure 29.81 in
Visibility 2.0 miles
Clouds Overcast 500 ft
Windchill 41 °F
Dew Point 45 °F
Humidity 95%
Rainfall 0.09 in
Snow Depth Not available.
7:23 AM 7:56 PM
Waxing Crescent, 3% visible
METAR KRSL 291353Z AUTO 02020G26KT 2SM -RA BR OVC005 08/07 A2980 RMK AO2 PK WND 02029/1321 SLP094 P0005 T00780067

Get Severe Weather Alerts

Thanks for signing up!

Be on the lookout for a verification email in your inbox.

You'll start receiving the daily forecast at 8 AM.

×

10-Day Weather Forecast

Almanac

Astronomy

Mar. 29, 2017 Rise Set
Actual Time
Civil Twilight
Nautical Twilight
Astronomical Twilight
Moon
Length of Visible Light
Length of Day
Tomorrow will be .
, % of the Moon is Illuminated

Today's Extremes

State Highs State Lows

Community

WunderPhotos

Upload Photos

1,962,540 photos uploaded!

WunderBlog® & News

Nearby

Air Quality

  Air Quality AQ Index Pollutant
Not available.

Snow Depth

Station Depth Elevation

Earthquake Activity

City Distance Mag. Time & Date
Minimum magnitude displayed is 2.5.

Earthquake Activity

City Distance Mag. Time & Date
Minimum magnitude displayed is 2.5.

Coastal Water Temperatures

Place Temperature

Stations

Nearby Weather Stations

Station Location Temp. Windchill Dew Point Humidity Wind Precip. Elev Updated Type
                   

Watches & Warnings

There are currently no watches in effect.